Time;durP1;ratioP1;P1;durP2;ratioP2;P2;SDS_P1;SDS_P2;PMS_P1;PMS_P2;Temp;Humidity;BMP_temperature;BMP_pressure;BME280_temperature;BME280_humidity;BME280_pressure;Samples;Min_cycle;Max_cycle;Signal;HPM_P1;HPM_P2
2023/03/20 00:01:57;;;;;;;;;;;17.10;63.20;;;;;;5024160;28;42831;-76
2023/03/20 00:04:22;;;;;;;;;;;17.20;63.30;;;;;;5024488;28;42952;-76
2023/03/20 00:06:48;;;;;;;;;;;17.00;63.40;;;;;;5024410;28;42880;-76
2023/03/20 00:09:13;;;;;;;;;;;17.20;63.70;;;;;;5020080;28;43435;-75
2023/03/20 00:11:42;;;;;;;;;;;17.10;63.50;;;;;;5004617;28;43023;-75
2023/03/20 00:14:09;;;;;;;;;;;17.10;63.60;;;;;;5004154;28;42966;-76
2023/03/20 00:16:36;;;;;;;;;;;17.00;63.70;;;;;;5003720;28;42953;-76
2023/03/20 00:19:02;;;;;;;;;;;17.00;63.50;;;;;;5006126;28;43645;-76
2023/03/20 00:21:27;;;;;;;;;;;17.10;63.40;;;;;;5007650;28;42923;-75
2023/03/20 00:23:53;;;;;;;;;;;17.20;63.50;;;;;;5007651;28;43423;-76
2023/03/20 00:26:20;;;;;;;;;;;17.20;63.60;;;;;;5007723;28;43247;-76
2023/03/20 00:28:46;;;;;;;;;;;17.10;63.60;;;;;;5006892;28;44531;-76
2023/03/20 00:31:25;;;;;;;;;;;16.90;63.50;;;;;;5008251;28;43022;-76
2023/03/20 00:33:56;;;;;;;;;;;16.90;62.40;;;;;;5006924;28;43497;-75
2023/03/20 00:36:21;;;;;;;;;;;17.00;63.60;;;;;;5018186;28;42954;-76
2023/03/20 00:38:47;;;;;;;;;;;17.10;63.70;;;;;;5017391;28;42918;-76
2023/03/20 00:41:19;;;;;;;;;;;17.20;63.70;;;;;;5025191;28;42961;-76
2023/03/20 00:43:45;;;;;;;;;;;17.10;62.60;;;;;;5024694;28;43582;-76
2023/03/20 00:46:12;;;;;;;;;;;16.90;63.70;;;;;;5007703;28;43024;-76
2023/03/20 00:48:39;;;;;;;;;;;17.40;64.00;;;;;;5011865;28;43010;-75
2023/03/20 00:51:06;;;;;;;;;;;17.00;63.70;;;;;;5007497;28;59763;-75
2023/03/20 00:53:32;;;;;;;;;;;17.00;63.60;;;;;;5017801;28;43007;-76
2023/03/20 00:55:57;;;;;;;;;;;17.10;63.80;;;;;;5007069;28;43217;-75
2023/03/20 00:58:23;;;;;;;;;;;16.90;63.70;;;;;;5020079;28;43868;-75
2023/03/20 01:00:49;;;;;;;;;;;16.90;63.70;;;;;;5026704;28;43024;-76
2023/03/20 01:03:14;;;;;;;;;;;17.00;63.70;;;;;;5026941;28;42937;-76
2023/03/20 01:05:40;;;;;;;;;;;16.90;63.70;;;;;;5026742;28;42993;-75
2023/03/20 01:08:24;;;;;;;;;;;16.90;63.80;;;;;;5026570;28;43017;-77
2023/03/20 01:10:52;;;;;;;;;;;17.00;62.80;;;;;;5026559;28;42984;-75
2023/03/20 01:13:25;;;;;;;;;;;17.10;63.90;;;;;;5026490;28;43784;-78
2023/03/20 01:15:51;;;;;;;;;;;16.90;62.70;;;;;;5026102;28;42984;-76
2023/03/20 01:18:18;;;;;;;;;;;17.10;63.80;;;;;;5025877;28;42899;-75
2023/03/20 01:20:44;;;;;;;;;;;17.00;63.70;;;;;;5025728;28;42818;-76
2023/03/20 01:23:10;;;;;;;;;;;17.10;63.80;;;;;;5017752;28;42975;-77
2023/03/20 01:25:35;;;;;;;;;;;17.10;64.00;;;;;;5006351;28;43017;-76
2023/03/20 01:28:01;;;;;;;;;;;17.00;63.70;;;;;;5021152;28;42941;-76
2023/03/20 01:30:28;;;;;;;;;;;17.00;63.70;;;;;;5025292;28;43060;-77
2023/03/20 01:32:54;;;;;;;;;;;17.00;63.70;;;;;;5002248;28;44536;-76
2023/03/20 01:35:21;;;;;;;;;;;17.10;63.70;;;;;;5011984;28;42929;-76
2023/03/20 01:37:47;;;;;;;;;;;16.90;63.60;;;;;;5025164;28;43607;-76
2023/03/20 01:40:22;;;;;;;;;;;16.90;63.70;;;;;;5025340;28;42874;-75
2023/03/20 01:42:47;;;;;;;;;;;17.20;63.60;;;;;;5006121;28;43742;-76
2023/03/20 01:45:19;;;;;;;;;;;17.10;63.80;;;;;;4998903;28;43066;-76
2023/03/20 01:47:44;;;;;;;;;;;16.90;62.50;;;;;;5017660;28;43974;-75
2023/03/20 01:50:21;;;;;;;;;;;16.90;63.70;;;;;;5013443;28;43234;-76
2023/03/20 01:52:47;;;;;;;;;;;17.00;62.50;;;;;;5008393;28;43041;-76
2023/03/20 01:55:12;;;;;;;;;;;17.10;63.70;;;;;;5025923;28;43020;-76
2023/03/20 01:57:38;;;;;;;;;;;17.00;63.60;;;;;;5025288;28;43505;-76
2023/03/20 02:00:08;;;;;;;;;;;17.00;63.70;;;;;;5006010;28;42973;-76
2023/03/20 02:02:34;;;;;;;;;;;17.00;63.50;;;;;;4988343;28;42929;-75
2023/03/20 02:05:01;;;;;;;;;;;16.90;63.90;;;;;;5023612;28;43733;-76
2023/03/20 02:07:27;;;;;;;;;;;16.90;63.90;;;;;;5024599;28;43626;-76
2023/03/20 02:09:52;;;;;;;;;;;17.10;63.80;;;;;;5007892;28;43141;-76
2023/03/20 02:12:18;;;;;;;;;;;16.90;63.70;;;;;;4987619;28;44089;-76
2023/03/20 02:14:45;;;;;;;;;;;16.90;63.80;;;;;;5007027;28;43562;-76
2023/03/20 02:17:10;;;;;;;;;;;17.00;64.00;;;;;;5005832;28;43544;-76
2023/03/20 02:19:54;;;;;;;;;;;16.90;64.00;;;;;;5023066;28;43040;-75
2023/03/20 02:22:23;;;;;;;;;;;16.90;62.80;;;;;;5024884;28;44266;-76
2023/03/20 02:24:48;;;;;;;;;;;17.00;62.70;;;;;;5014694;28;43222;-76
2023/03/20 02:27:14;;;;;;;;;;;17.00;63.80;;;;;;5005749;28;42942;-76
2023/03/20 02:29:52;;;;;;;;;;;17.00;63.90;;;;;;5005992;28;42846;-76
2023/03/20 02:32:17;;;;;;;;;;;16.90;62.70;;;;;;5005639;28;43084;-76
2023/03/20 02:35:21;;;;;;;;;;;16.90;63.80;;;;;;5021226;28;43100;-77
2023/03/20 02:37:55;;;;;;;;;;;17.00;62.70;;;;;;4967948;28;43561;-76
2023/03/20 02:40:39;;;;;;;;;;;16.90;62.70;;;;;;4968921;28;43062;-76
2023/03/20 02:43:19;;;;;;;;;;;16.80;62.60;;;;;;4977065;28;42961;-76
2023/03/20 02:45:44;;;;;;;;;;;16.90;63.60;;;;;;4978820;28;43343;-77
2023/03/20 02:48:17;;;;;;;;;;;16.90;63.90;;;;;;4975275;28;42835;-76
2023/03/20 02:50:42;;;;;;;;;;;16.90;62.70;;;;;;4964755;28;43127;-76
2023/03/20 02:53:26;;;;;;;;;;;17.00;63.90;;;;;;4962923;28;42963;-75
2023/03/20 02:55:51;;;;;;;;;;;16.90;62.60;;;;;;4964729;28;43027;-76
2023/03/20 02:58:27;;;;;;;;;;;16.90;63.70;;;;;;4979225;28;43015;-76
2023/03/20 03:00:53;;;;;;;;;;;17.00;62.60;;;;;;4982129;28;43592;-76
2023/03/20 03:03:21;;;;;;;;;;;16.90;63.60;;;;;;4981397;28;43677;-76
2023/03/20 03:05:56;;;;;;;;;;;16.90;63.70;;;;;;4973532;28;42986;-76
2023/03/20 03:08:22;;;;;;;;;;;16.90;62.30;;;;;;4989143;28;43545;-76
2023/03/20 03:10:58;;;;;;;;;;;17.00;63.50;;;;;;5007677;28;43005;-75
2023/03/20 03:13:25;;;;;;;;;;;17.10;62.50;;;;;;5005916;28;42973;-75
2023/03/20 03:15:52;;;;;;;;;;;17.10;63.60;;;;;;5005322;28;42843;-75
2023/03/20 03:18:19;;;;;;;;;;;16.90;63.50;;;;;;5005189;28;44654;-76
2023/03/20 03:20:47;;;;;;;;;;;17.20;63.70;;;;;;5013585;28;42859;-76
2023/03/20 03:23:33;;;;;;;;;;;16.90;63.60;;;;;;5023837;28;42875;-76
2023/03/20 03:26:01;;;;;;;;;;;16.90;62.80;;;;;;5024358;28;43031;-76
2023/03/20 03:28:30;;;;;;;;;;;16.90;63.60;;;;;;5015744;28;43575;-76
2023/03/20 03:30:56;;;;;;;;;;;17.10;63.90;;;;;;5004146;28;43159;-75
2023/03/20 03:33:29;;;;;;;;;;;17.00;63.80;;;;;;5004309;28;42929;-76
2023/03/20 03:36:07;;;;;;;;;;;17.00;62.60;;;;;;5009650;28;43179;-75
2023/03/20 03:38:33;;;;;;;;;;;16.90;63.90;;;;;;5010367;28;43144;-76
2023/03/20 03:41:07;;;;;;;;;;;16.90;63.90;;;;;;5005747;28;43073;-76
2023/03/20 03:43:36;;;;;;;;;;;17.00;62.80;;;;;;5017967;28;43472;-76
2023/03/20 03:46:06;;;;;;;;;;;16.90;63.90;;;;;;5023085;28;42966;-76
2023/03/20 03:48:33;;;;;;;;;;;17.00;63.80;;;;;;5022608;28;43105;-76
2023/03/20 03:51:02;;;;;;;;;;;17.00;63.60;;;;;;5023114;28;43641;-76
2023/03/20 03:53:36;;;;;;;;;;;17.10;63.60;;;;;;5014207;28;43035;-76
2023/03/20 03:56:05;;;;;;;;;;;17.10;62.70;;;;;;5012336;28;42814;-75
2023/03/20 03:58:35;;;;;;;;;;;17.10;63.70;;;;;;5010193;28;43505;-76
2023/03/20 04:01:01;;;;;;;;;;;17.00;63.80;;;;;;5027656;28;42896;-76
2023/03/20 04:03:32;;;;;;;;;;;17.00;63.60;;;;;;5025945;28;43456;-76
2023/03/20 04:05:59;;;;;;;;;;;17.10;63.60;;;;;;5027573;28;43025;-76
2023/03/20 04:08:25;;;;;;;;;;;16.90;63.50;;;;;;5026930;28;43596;-76
2023/03/20 04:10:50;;;;;;;;;;;17.00;63.70;;;;;;5026467;28;42870;-76
2023/03/20 04:13:16;;;;;;;;;;;16.90;63.70;;;;;;5027800;28;43368;-75
2023/03/20 04:15:42;;;;;;;;;;;17.10;64.10;;;;;;5026331;28;43063;-75
2023/03/20 04:18:13;;;;;;;;;;;16.90;63.70;;;;;;5027435;28;43754;-76
2023/03/20 04:20:38;;;;;;;;;;;17.00;63.80;;;;;;5027167;28;42936;-76
2023/03/20 04:23:04;;;;;;;;;;;16.90;63.10;;;;;;5008464;28;44014;-75
2023/03/20 04:25:30;;;;;;;;;;;17.00;63.60;;;;;;5027010;28;43018;-76
2023/03/20 04:27:55;;;;;;;;;;;17.00;63.50;;;;;;5026970;28;43021;-76
2023/03/20 04:30:21;;;;;;;;;;;17.00;63.60;;;;;;5027085;28;42993;-76
2023/03/20 04:32:46;;;;;;;;;;;17.10;63.50;;;;;;5021801;28;44233;-77
2023/03/20 04:35:12;;;;;;;;;;;17.00;63.60;;;;;;5019281;28;42985;-76
2023/03/20 04:37:37;;;;;;;;;;;17.00;63.70;;;;;;5018435;28;43093;-76
2023/03/20 04:40:03;;;;;;;;;;;17.00;63.70;;;;;;5005258;28;43091;-75
2023/03/20 04:42:28;;;;;;;;;;;17.00;63.50;;;;;;5021122;28;43398;-75
2023/03/20 04:44:54;;;;;;;;;;;17.10;63.60;;;;;;5012940;28;43170;-75
2023/03/20 04:47:20;;;;;;;;;;;17.00;63.60;;;;;;5023266;28;43568;-75
2023/03/20 04:49:45;;;;;;;;;;;17.00;63.70;;;;;;5026976;28;42996;-77
2023/03/20 04:52:11;;;;;;;;;;;17.00;63.70;;;;;;5023033;28;43345;-76
2023/03/20 04:54:36;;;;;;;;;;;16.90;63.80;;;;;;5006468;28;42935;-76
2023/03/20 04:57:02;;;;;;;;;;;17.00;63.90;;;;;;5006976;28;43434;-76
2023/03/20 04:59:27;;;;;;;;;;;17.00;63.90;;;;;;5007045;28;42846;-76
2023/03/20 05:01:53;;;;;;;;;;;16.90;63.70;;;;;;5022008;28;42996;-75
2023/03/20 05:04:18;;;;;;;;;;;17.10;63.30;;;;;;5005652;28;43376;-76
2023/03/20 05:06:47;;;;;;;;;;;17.00;63.70;;;;;;5011642;28;42973;-75
2023/03/20 05:09:14;;;;;;;;;;;17.00;63.70;;;;;;5026549;28;42786;-76
2023/03/20 05:11:40;;;;;;;;;;;17.00;63.80;;;;;;5016397;28;43442;-75
2023/03/20 05:14:06;;;;;;;;;;;16.80;63.60;;;;;;5024541;28;42875;-76
2023/03/20 05:16:31;;;;;;;;;;;16.90;63.70;;;;;;5015918;28;43094;-76
2023/03/20 05:18:57;;;;;;;;;;;17.00;63.50;;;;;;5008040;28;42929;-76
2023/03/20 05:21:22;;;;;;;;;;;17.10;63.70;;;;;;5012440;28;42954;-76
2023/03/20 05:23:48;;;;;;;;;;;17.20;63.70;;;;;;5019727;28;43310;-74
2023/03/20 05:26:13;;;;;;;;;;;17.00;63.70;;;;;;5006815;28;43018;-75
2023/03/20 05:28:39;;;;;;;;;;;17.00;63.70;;;;;;5024162;28;43111;-76
2023/03/20 05:31:05;;;;;;;;;;;17.10;63.70;;;;;;5024144;28;42967;-75
2023/03/20 05:33:30;;;;;;;;;;;16.90;63.30;;;;;;5026045;28;42819;-76
2023/03/20 05:35:56;;;;;;;;;;;16.90;63.70;;;;;;5014157;28;43563;-76
2023/03/20 05:38:21;;;;;;;;;;;17.00;63.80;;;;;;5006595;28;42981;-77
2023/03/20 05:40:54;;;;;;;;;;;16.90;63.70;;;;;;5006199;28;43492;-78
2023/03/20 05:43:19;;;;;;;;;;;16.90;62.50;;;;;;5005887;28;43032;-76
2023/03/20 05:45:45;;;;;;;;;;;17.10;63.80;;;;;;5023702;28;43973;-78
2023/03/20 05:48:10;;;;;;;;;;;17.00;63.80;;;;;;5014655;28;43379;-77
2023/03/20 05:50:36;;;;;;;;;;;16.90;64.00;;;;;;5014662;28;43978;-76
2023/03/20 05:53:02;;;;;;;;;;;16.90;63.80;;;;;;5013824;28;42928;-77
2023/03/20 05:55:27;;;;;;;;;;;16.90;64.00;;;;;;5016681;28;44196;-80
2023/03/20 05:57:52;;;;;;;;;;;16.80;63.70;;;;;;5014104;28;42973;-78
2023/03/20 06:00:19;;;;;;;;;;;16.90;63.50;;;;;;5014880;28;43715;-78
2023/03/20 06:02:44;;;;;;;;;;;17.00;63.50;;;;;;5012675;28;42943;-77
2023/03/20 06:05:10;;;;;;;;;;;16.90;63.70;;;;;;5015159;28;43190;-76
2023/03/20 06:07:35;;;;;;;;;;;16.70;63.70;;;;;;5015438;28;43173;-77
2023/03/20 06:10:01;;;;;;;;;;;17.00;63.90;;;;;;5013306;28;42953;-76
2023/03/20 06:12:26;;;;;;;;;;;17.00;63.80;;;;;;5013868;28;43155;-75
2023/03/20 06:14:52;;;;;;;;;;;16.80;63.50;;;;;;5011118;28;42990;-75
2023/03/20 06:17:17;;;;;;;;;;;16.90;63.50;;;;;;5019241;28;43022;-74
2023/03/20 06:19:43;;;;;;;;;;;16.90;63.80;;;;;;5020343;28;43176;-75
2023/03/20 06:22:08;;;;;;;;;;;17.00;63.80;;;;;;5004783;28;43141;-74
2023/03/20 06:24:34;;;;;;;;;;;16.90;63.70;;;;;;5010492;28;43468;-75
2023/03/20 06:27:00;;;;;;;;;;;17.00;63.70;;;;;;4987765;28;42980;-76
2023/03/20 06:29:26;;;;;;;;;;;16.80;63.60;;;;;;5005514;28;42945;-75
2023/03/20 06:31:51;;;;;;;;;;;16.90;63.80;;;;;;5006030;28;43246;-75
2023/03/20 06:34:17;;;;;;;;;;;17.00;63.00;;;;;;4986773;28;44375;-77
2023/03/20 06:36:42;;;;;;;;;;;16.90;63.10;;;;;;4993479;28;43022;-78
2023/03/20 06:39:08;;;;;;;;;;;16.80;63.70;;;;;;5019149;28;43741;-73
2023/03/20 06:41:33;;;;;;;;;;;17.70;64.20;;;;;;5004248;28;43014;-78
2023/03/20 06:43:59;;;;;;;;;;;16.90;63.70;;;;;;5004778;28;43045;-78
2023/03/20 06:46:25;;;;;;;;;;;16.90;63.80;;;;;;5005674;28;42838;-78
2023/03/20 06:48:51;;;;;;;;;;;17.00;63.90;;;;;;5004747;28;42846;-76
2023/03/20 06:51:16;;;;;;;;;;;16.70;63.60;;;;;;5005691;28;42897;-76
2023/03/20 06:53:43;;;;;;;;;;;16.90;63.70;;;;;;5005491;28;43429;-77
2023/03/20 06:56:09;;;;;;;;;;;16.80;63.70;;;;;;4987723;28;43019;-76
2023/03/20 06:58:35;;;;;;;;;;;16.90;63.50;;;;;;5005449;28;43427;-77
2023/03/20 07:01:01;;;;;;;;;;;16.90;63.80;;;;;;5005515;28;42969;-78
2023/03/20 07:03:27;;;;;;;;;;;17.00;64.60;;;;;;5005648;28;42812;-76
2023/03/20 07:05:52;;;;;;;;;;;16.80;63.90;;;;;;5005551;28;43038;-78
2023/03/20 07:08:18;;;;;;;;;;;16.80;64.00;;;;;;5005739;28;43012;-76
2023/03/20 07:10:43;;;;;;;;;;;16.80;63.40;;;;;;5005160;28;42942;-77
2023/03/20 07:13:09;;;;;;;;;;;16.90;64.00;;;;;;5004899;28;42890;-76
2023/03/20 07:15:35;;;;;;;;;;;16.80;63.80;;;;;;5005257;28;42937;-77
2023/03/20 07:18:00;;;;;;;;;;;16.90;64.00;;;;;;5005403;28;42846;-76
2023/03/20 07:20:26;;;;;;;;;;;16.80;63.80;;;;;;5005078;28;42884;-76
2023/03/20 07:22:51;;;;;;;;;;;16.90;63.80;;;;;;5004835;28;43467;-75
2023/03/20 07:25:17;;;;;;;;;;;16.90;63.90;;;;;;5005194;28;42803;-76
2023/03/20 07:27:49;;;;;;;;;;;16.90;63.90;;;;;;5004576;28;43824;-75
2023/03/20 07:30:15;;;;;;;;;;;16.90;64.00;;;;;;5005145;28;42950;-76
2023/03/20 07:32:40;;;;;;;;;;;17.00;64.10;;;;;;5003858;28;43037;-77
2023/03/20 07:35:06;;;;;;;;;;;17.00;63.90;;;;;;5004688;28;43050;-77
2023/03/20 07:37:32;;;;;;;;;;;17.00;63.60;;;;;;4987091;28;42963;-78
2023/03/20 07:39:57;;;;;;;;;;;17.00;63.80;;;;;;5005054;28;43038;-78
2023/03/20 07:42:23;;;;;;;;;;;17.10;63.70;;;;;;5004714;28;43752;-76
2023/03/20 07:44:48;;;;;;;;;;;17.10;63.60;;;;;;5005118;28;42950;-77
2023/03/20 07:47:14;;;;;;;;;;;17.20;63.60;;;;;;5004279;28;43018;-76
2023/03/20 07:49:40;;;;;;;;;;;17.10;63.30;;;;;;5004962;28;43381;-78
2023/03/20 07:52:05;;;;;;;;;;;17.20;63.50;;;;;;5004757;28;43359;-77
2023/03/20 07:54:31;;;;;;;;;;;17.20;63.40;;;;;;5005113;28;42921;-76
2023/03/20 07:56:56;;;;;;;;;;;17.10;63.30;;;;;;5004279;28;42969;-78
2023/03/20 07:59:22;;;;;;;;;;;17.10;62.70;;;;;;5004520;28;43127;-77
2023/03/20 08:01:47;;;;;;;;;;;17.30;63.20;;;;;;5004101;28;42938;-78
2023/03/20 08:04:13;;;;;;;;;;;17.30;63.20;;;;;;5004400;28;42921;-76
2023/03/20 08:06:38;;;;;;;;;;;17.30;63.10;;;;;;5004869;28;43448;-76
2023/03/20 08:09:04;;;;;;;;;;;17.20;63.00;;;;;;5003694;28;42931;-78
2023/03/20 08:11:30;;;;;;;;;;;17.20;63.10;;;;;;5004420;28;43777;-78
2023/03/20 08:13:55;;;;;;;;;;;17.20;63.00;;;;;;5004200;28;42968;-78
2023/03/20 08:16:21;;;;;;;;;;;17.20;63.10;;;;;;5004501;28;43427;-78
2023/03/20 08:18:47;;;;;;;;;;;17.30;63.00;;;;;;5003562;28;42793;-77
2023/03/20 08:21:12;;;;;;;;;;;17.30;62.90;;;;;;4986455;28;44111;-78
2023/03/20 08:23:37;;;;;;;;;;;17.30;62.90;;;;;;5004625;28;42894;-78
2023/03/20 08:26:03;;;;;;;;;;;17.30;62.90;;;;;;4986625;28;44578;-77
2023/03/20 08:28:28;;;;;;;;;;;17.30;62.70;;;;;;5004593;28;42865;-78
2023/03/20 08:30:54;;;;;;;;;;;17.30;62.90;;;;;;5003773;28;43494;-77
2023/03/20 08:33:20;;;;;;;;;;;17.30;62.60;;;;;;5004100;28;42977;-77
2023/03/20 08:35:55;;;;;;;;;;;17.40;62.70;;;;;;5003933;28;42973;-77
2023/03/20 08:38:21;;;;;;;;;;;17.50;61.70;;;;;;5004367;28;42750;-79
2023/03/20 08:40:46;;;;;;;;;;;17.30;62.60;;;;;;5007409;28;43439;-77
2023/03/20 08:43:12;;;;;;;;;;;17.40;62.70;;;;;;5007841;28;43176;-78
2023/03/20 08:45:37;;;;;;;;;;;17.40;62.60;;;;;;5007122;28;42948;-78
2023/03/20 08:48:03;;;;;;;;;;;17.50;62.70;;;;;;5007110;28;42933;-79
2023/03/20 08:50:29;;;;;;;;;;;17.40;62.60;;;;;;5007001;28;42936;-78
2023/03/20 08:52:54;;;;;;;;;;;17.40;62.60;;;;;;5007768;28;43108;-77
2023/03/20 08:55:20;;;;;;;;;;;17.40;62.50;;;;;;5007477;28;43488;-78
2023/03/20 08:57:46;;;;;;;;;;;17.30;62.40;;;;;;5007585;28;43069;-76
2023/03/20 09:00:13;;;;;;;;;;;17.50;62.50;;;;;;5006657;28;42998;-79
2023/03/20 09:02:38;;;;;;;;;;;17.50;62.20;;;;;;5007705;28;42831;-77
2023/03/20 09:05:04;;;;;;;;;;;17.40;62.60;;;;;;5007118;28;42870;-78
2023/03/20 09:07:30;;;;;;;;;;;17.50;62.20;;;;;;5006891;28;42953;-78
2023/03/20 09:09:55;;;;;;;;;;;17.60;62.40;;;;;;5007021;28;43057;-78
2023/03/20 09:12:21;;;;;;;;;;;17.50;62.50;;;;;;5007148;28;42771;-78
2023/03/20 09:14:47;;;;;;;;;;;17.60;62.40;;;;;;5007104;28;43007;-78
2023/03/20 09:17:12;;;;;;;;;;;17.50;62.40;;;;;;5006427;28;42973;-78
2023/03/20 09:19:38;;;;;;;;;;;17.50;62.40;;;;;;5006159;28;43481;-79
2023/03/20 09:22:04;;;;;;;;;;;17.50;62.40;;;;;;4988684;28;42963;-79
2023/03/20 09:24:31;;;;;;;;;;;17.70;62.50;;;;;;5006441;28;42998;-79
2023/03/20 09:26:57;;;;;;;;;;;17.50;62.20;;;;;;5006998;28;42808;-78
2023/03/20 09:29:23;;;;;;;;;;;17.50;62.30;;;;;;5006422;28;42879;-78
2023/03/20 09:31:48;;;;;;;;;;;17.50;62.30;;;;;;5006629;28;42827;-78
2023/03/20 09:34:14;;;;;;;;;;;17.60;62.50;;;;;;5005891;28;43623;-78
2023/03/20 09:36:40;;;;;;;;;;;18.30;62.90;;;;;;5006318;28;42918;-78
2023/03/20 09:39:05;;;;;;;;;;;17.60;62.30;;;;;;5005984;28;43463;-78
2023/03/20 09:41:37;;;;;;;;;;;17.60;62.30;;;;;;4988525;28;42946;-78
2023/03/20 09:44:08;;;;;;;;;;;17.50;61.50;;;;;;5006257;28;44348;-78
2023/03/20 09:46:48;;;;;;;;;;;17.70;62.40;;;;;;5006581;28;42850;-78
2023/03/20 09:49:16;;;;;;;;;;;17.70;61.30;;;;;;5006701;28;42950;-79
2023/03/20 09:51:48;;;;;;;;;;;17.60;61.30;;;;;;5006444;28;42848;-78
2023/03/20 09:54:16;;;;;;;;;;;17.50;61.20;;;;;;5006135;28;43566;-77
2023/03/20 09:56:42;;;;;;;;;;;17.60;61.20;;;;;;5006255;28;42863;-78
2023/03/20 09:59:13;;;;;;;;;;;17.60;62.20;;;;;;5005574;28;43493;-79
2023/03/20 10:01:43;;;;;;;;;;;17.50;62.10;;;;;;5006082;28;42928;-79
2023/03/20 10:04:09;;;;;;;;;;;17.50;62.20;;;;;;5005728;28;43961;-78
2023/03/20 10:06:35;;;;;;;;;;;17.50;62.20;;;;;;5006014;28;43024;-77
2023/03/20 10:09:01;;;;;;;;;;;17.70;62.20;;;;;;5006255;28;42962;-76
2023/03/20 10:11:41;;;;;;;;;;;17.60;62.10;;;;;;5005962;28;42986;-79
2023/03/20 10:14:33;;;;;;;;;;;17.60;61.00;;;;;;5005870;28;43061;-79
2023/03/20 10:17:16;;;;;;;;;;;17.50;60.90;;;;;;4997088;28;42943;-79
2023/03/20 10:19:49;;;;;;;;;;;17.70;61.10;;;;;;5006667;28;42983;-78
2023/03/20 10:22:25;;;;;;;;;;;17.70;62.20;;;;;;5005987;28;42918;-79
2023/03/20 10:24:53;;;;;;;;;;;17.70;61.10;;;;;;5005634;28;43317;-79
2023/03/20 10:27:23;;;;;;;;;;;17.70;60.90;;;;;;5005862;28;43021;-78
2023/03/20 10:29:57;;;;;;;;;;;17.70;60.80;;;;;;5005961;28;43365;-78
2023/03/20 10:32:49;;;;;;;;;;;17.70;60.70;;;;;;5006127;28;42923;-79
2023/03/20 10:35:33;;;;;;;;;;;17.80;61.00;;;;;;4996773;28;43076;-77
2023/03/20 10:38:01;;;;;;;;;;;17.70;60.90;;;;;;5005704;28;43024;-78
2023/03/20 10:40:30;;;;;;;;;;;17.90;61.10;;;;;;4987687;28;42934;-77
2023/03/20 10:43:00;;;;;;;;;;;17.80;61.00;;;;;;5005918;28;43015;-78
2023/03/20 10:45:29;;;;;;;;;;;17.70;62.00;;;;;;5005843;28;44298;-78
2023/03/20 10:47:56;;;;;;;;;;;17.80;60.90;;;;;;5005665;28;42994;-78
2023/03/20 10:50:25;;;;;;;;;;;17.80;62.20;;;;;;5005583;28;42869;-78
2023/03/20 10:52:51;;;;;;;;;;;17.80;62.20;;;;;;5005784;28;42880;-79
2023/03/20 10:55:19;;;;;;;;;;;17.80;62.10;;;;;;5005838;28;42953;-78
2023/03/20 10:57:52;;;;;;;;;;;17.70;62.10;;;;;;5005743;28;42826;-79
2023/03/20 11:00:19;;;;;;;;;;;17.70;60.90;;;;;;5004304;28;42945;-78
2023/03/20 11:02:45;;;;;;;;;;;18.20;62.40;;;;;;5005082;28;42938;-78
2023/03/20 11:05:27;;;;;;;;;;;17.70;62.10;;;;;;5005679;28;42930;-78
2023/03/20 11:08:11;;;;;;;;;;;17.60;60.90;;;;;;5004740;28;42867;-77
2023/03/20 11:10:38;;;;;;;;;;;17.70;60.90;;;;;;5005096;28;43538;-77
2023/03/20 11:13:32;;;;;;;;;;;17.80;62.10;;;;;;5005520;28;42897;-78
2023/03/20 11:16:18;;;;;;;;;;;17.70;61.20;;;;;;5000102;28;43114;-78
2023/03/20 11:18:45;;;;;;;;;;;17.60;62.40;;;;;;5004753;28;43167;-77
2023/03/20 11:21:14;;;;;;;;;;;17.60;62.30;;;;;;5004480;28;43742;-77
2023/03/20 11:23:39;;;;;;;;;;;17.80;62.30;;;;;;5003783;28;43140;-78
2023/03/20 11:26:06;;;;;;;;;;;18.00;62.40;;;;;;5004393;28;43706;-77
2023/03/20 11:28:39;;;;;;;;;;;17.70;62.10;;;;;;5004428;28;42978;-78
2023/03/20 11:31:05;;;;;;;;;;;17.80;61.00;;;;;;5004145;28;43484;-78
2023/03/20 11:33:38;;;;;;;;;;;17.70;61.90;;;;;;5004726;28;42897;-78
2023/03/20 11:36:09;;;;;;;;;;;17.80;61.00;;;;;;5004651;28;43910;-77
2023/03/20 11:38:41;;;;;;;;;;;17.80;62.10;;;;;;5005137;28;42733;-79
2023/03/20 11:41:16;;;;;;;;;;;17.80;62.30;;;;;;5004553;28;43500;-77
2023/03/20 11:43:41;;;;;;;;;;;17.70;62.30;;;;;;5010870;28;42945;-76
2023/03/20 11:46:09;;;;;;;;;;;17.80;62.20;;;;;;5015964;28;42751;-78
2023/03/20 11:48:36;;;;;;;;;;;17.60;62.20;;;;;;5017647;28;42842;-76
2023/03/20 11:51:02;;;;;;;;;;;17.80;62.30;;;;;;5012170;28;42896;-77
2023/03/20 11:53:31;;;;;;;;;;;17.70;62.10;;;;;;5004413;28;42815;-77
2023/03/20 11:56:07;;;;;;;;;;;17.80;61.20;;;;;;5004506;28;43555;-77
2023/03/20 11:58:34;;;;;;;;;;;17.70;62.30;;;;;;5003606;28;43247;-77
2023/03/20 12:01:01;;;;;;;;;;;17.60;62.30;;;;;;5013845;28;42940;-75
2023/03/20 12:03:33;;;;;;;;;;;17.70;62.40;;;;;;5023140;28;42918;-76
2023/03/20 12:05:59;;;;;;;;;;;17.90;61.30;;;;;;5022233;28;42916;-78
2023/03/20 12:08:25;;;;;;;;;;;17.60;61.90;;;;;;5023371;28;42965;-76
2023/03/20 12:10:59;;;;;;;;;;;17.80;62.50;;;;;;5023811;28;43928;-79
2023/03/20 12:13:26;;;;;;;;;;;17.80;61.50;;;;;;5025251;28;42925;-79
2023/03/20 12:15:56;;;;;;;;;;;17.40;62.50;;;;;;5027534;28;42965;-79
2023/03/20 12:18:24;;;;;;;;;;;17.70;62.80;;;;;;5024402;28;43032;-79
2023/03/20 12:20:56;;;;;;;;;;;17.60;61.50;;;;;;4997264;28;43821;-79
2023/03/20 12:23:26;;;;;;;;;;;17.70;61.50;;;;;;5006648;28;42988;-79
2023/03/20 12:25:58;;;;;;;;;;;17.80;62.70;;;;;;5007300;28;43454;-79
2023/03/20 12:28:30;;;;;;;;;;;17.70;62.10;;;;;;5007915;28;43156;-79
2023/03/20 12:31:11;;;;;;;;;;;17.80;61.60;;;;;;5007139;28;42869;-79
2023/03/20 12:33:40;;;;;;;;;;;17.70;61.60;;;;;;5024388;28;42953;-77
2023/03/20 12:36:11;;;;;;;;;;;17.80;62.70;;;;;;5024159;28;43174;-76
2023/03/20 12:38:37;;;;;;;;;;;17.70;62.60;;;;;;5006453;28;42878;-76
2023/03/20 12:41:10;;;;;;;;;;;17.70;62.60;;;;;;5008272;28;43006;-79
2023/03/20 12:43:56;;;;;;;;;;;17.70;61.40;;;;;;5018487;28;42910;-78
2023/03/20 12:46:21;;;;;;;;;;;17.60;62.60;;;;;;5025994;28;42862;-79
2023/03/20 12:48:47;;;;;;;;;;;17.70;62.60;;;;;;5027072;28;43006;-81
2023/03/20 12:51:12;;;;;;;;;;;17.70;62.80;;;;;;5026363;28;43044;-81
2023/03/20 12:53:52;;;;;;;;;;;17.70;62.80;;;;;;5026950;28;42931;-78
2023/03/20 12:56:31;;;;;;;;;;;17.60;61.50;;;;;;5026819;28;43455;-79
2023/03/20 12:59:15;;;;;;;;;;;17.60;61.30;;;;;;5020081;28;43057;-79
2023/03/20 13:01:52;;;;;;;;;;;17.80;61.50;;;;;;5017643;28;43492;-79
2023/03/20 13:04:36;;;;;;;;;;;17.80;61.50;;;;;;5026200;28;43042;-79
2023/03/20 13:07:05;;;;;;;;;;;17.60;61.50;;;;;;5025701;28;43750;-77
2023/03/20 13:09:46;;;;;;;;;;;17.80;62.70;;;;;;5025879;28;42897;-76
2023/03/20 13:12:30;;;;;;;;;;;17.70;62.70;;;;;;5025035;28;43010;-75
2023/03/20 13:14:59;;;;;;;;;;;17.70;61.60;;;;;;5026336;28;43074;-75
2023/03/20 13:17:24;;;;;;;;;;;17.50;61.60;;;;;;5025415;28;42863;-76
2023/03/20 13:20:02;;;;;;;;;;;17.60;62.80;;;;;;5010345;28;43087;-76
2023/03/20 13:22:34;;;;;;;;;;;17.60;61.80;;;;;;5017578;28;42995;-75
2023/03/20 13:25:09;;;;;;;;;;;17.60;62.80;;;;;;5005784;28;42818;-76
2023/03/20 13:27:44;;;;;;;;;;;17.70;61.80;;;;;;5006549;28;42915;-76
2023/03/20 13:30:18;;;;;;;;;;;17.60;61.80;;;;;;5006263;28;42927;-75
2023/03/20 13:32:54;;;;;;;;;;;17.70;61.80;;;;;;5019527;28;43865;-77
2023/03/20 13:35:28;;;;;;;;;;;17.60;61.80;;;;;;5019567;28;42968;-76
2023/03/20 13:37:55;;;;;;;;;;;17.50;61.80;;;;;;5013438;28;42962;-75
2023/03/20 13:40:24;;;;;;;;;;;17.60;63.00;;;;;;5016743;28;43013;-76
2023/03/20 13:42:50;;;;;;;;;;;17.60;63.10;;;;;;5022037;28;43039;-77
2023/03/20 13:45:22;;;;;;;;;;;17.50;63.10;;;;;;5019913;28;42827;-76
2023/03/20 13:47:48;;;;;;;;;;;17.60;62.00;;;;;;5006351;28;42902;-77
2023/03/20 13:50:17;;;;;;;;;;;17.70;63.20;;;;;;5007143;28;43052;-75
2023/03/20 13:52:47;;;;;;;;;;;17.70;62.10;;;;;;5023525;28;42998;-75
2023/03/20 13:55:28;;;;;;;;;;;17.60;63.30;;;;;;5025859;28;43024;-75
2023/03/20 13:58:03;;;;;;;;;;;17.50;62.20;;;;;;5025665;28;42858;-75
2023/03/20 14:00:34;;;;;;;;;;;17.50;62.20;;;;;;5014246;28;43003;-79
2023/03/20 14:03:13;;;;;;;;;;;18.00;62.40;;;;;;5025656;28;43920;-79
2023/03/20 14:05:40;;;;;;;;;;;17.50;62.20;;;;;;5013445;28;42988;-79
2023/03/20 14:08:21;;;;;;;;;;;17.60;63.40;;;;;;5018785;28;43829;-79
2023/03/20 14:10:47;;;;;;;;;;;17.60;62.30;;;;;;5025300;28;43021;-77
2023/03/20 14:13:13;;;;;;;;;;;17.60;63.60;;;;;;5025304;28;43482;-78
2023/03/20 14:15:43;;;;;;;;;;;17.40;63.20;;;;;;4997948;28;43084;-75
2023/03/20 14:18:16;;;;;;;;;;;17.60;63.50;;;;;;5018134;28;43506;-76
2023/03/20 14:20:43;;;;;;;;;;;17.50;62.30;;;;;;5025355;28;43012;-75
2023/03/20 14:23:19;;;;;;;;;;;17.60;64.10;;;;;;5025441;28;43404;-76
2023/03/20 14:25:46;;;;;;;;;;;17.50;62.10;;;;;;5025051;28;42830;-76